Chester Catawba Rgnl Information

FAA: DCM - ICAO: KDCM

Chester Catawba Rgnl (Airport) Location

State South Carolina
County Chester
City Chester
Chester Catawba Rgnl (Airport) is 5 miles north of Chester, SC.
Latitude 34-47-21.6000N
Longitude 081-11-44.8000W
Elevation 656ft

Chester Catawba Rgnl METARs

METAR KDCM 190155Z AUTO 00000KT 10SM CLR 01/M07 A3022 RMK AO2
Altimeter 30.22"
Temperature 1.0°C (33.8°F)
Wind 0° at 0KT
Clouds Skies are clear.
Visibility 10.0mi
Time observed: 2022-01-19T01:55:00Z

Chester Catawba Rgnl (Airport) Details

Status Operational
Activation December 1943
Ownership Public
Usage Public
Chart CHARLOTTE
ATC on-site No
Beacon schedule sunset-sunrise
Beacon color clear green

Chester Catawba Rgnl (Airport) Contacts

Owner COUNTY OF CHESTER
Owner address P.O. BOX 594, CHESTER, SC 29706
Owner phone (803) 385-3154
Manager JOEL PHILLIPS
Manager address 39 AIRPORT CIRCLE, BEAUFORT, SC 29907
Manager phone 843-255-2972.

Chester Catawba Rgnl Radio Frequencies

Chester Catawba Rgnl (Airport) Radio Frequencies

UNICOM 122.7
Common traffic advisory frequency (CTAF) 122.7